Terminal Aerodrome Forecast
Issued by NWS Louisville, KY

Home | Current Version | Previous Version | Text Only | Print | Product List | Glossary On
Versions: 1 2 3 4 5 6 7 8 9 10 11 12 13 14 15 16 17
000
FTUS43 KLMK 242300
TAFSDF
TAF
KSDF 242320Z 2500/2606 26012KT P6SM VCSH BKN018
     FM250700 25010KT P6SM BKN018
     FM251800 21008KT P6SM SCT022=

USA.gov is the U.S. government's official web portal to all federal, state and local government web resources and services.